Time;durP1;ratioP1;P1;durP2;ratioP2;P2;SDS_P1;SDS_P2;PMS_P1;PMS_P2;Temp;Humidity;BMP_temperature;BMP_pressure;BME280_temperature;BME280_humidity;BME280_pressure;Samples;Min_cycle;Max_cycle;Signal;HPM_P1;HPM_P2
2021/06/16 00:01:54;;;;;;;6.35;4.05;;;;;;;;;;5075235;28;20028;-65
2021/06/16 00:04:20;;;;;;;3.05;2.70;;;;;;;;;;5092672;28;20111;-66
2021/06/16 00:06:48;;;;;;;5.63;2.85;;;;;;;;;;5088830;28;20114;-66
2021/06/16 00:09:14;;;;;;;4.75;3.22;;;;;;;;;;5122597;27;20429;-66
2021/06/16 00:11:43;;;;;;;4.35;2.90;;;;;;;;;;5133215;27;20517;-66
2021/06/16 00:14:09;;;;;;;4.07;2.70;;;;;;;;;;5133150;27;20345;-66
2021/06/16 00:16:37;;;;;;;3.28;2.83;;;;;;;;;;5129051;27;20411;-65
2021/06/16 00:19:06;;;;;;;4.68;3.25;;;;;;;;;;5101537;28;20067;-66
2021/06/16 00:21:33;;;;;;;3.63;2.67;;;;;;;;;;5074676;28;20032;-66
2021/06/16 00:23:59;;;;;;;4.40;2.88;;;;;;;;;;5110069;28;20362;-66
2021/06/16 00:26:25;;;;;;;4.53;2.90;;;;;;;;;;5094737;28;20309;-66
2021/06/16 00:28:50;;;;;;;3.00;2.70;;;;;;;;;;5119588;27;20038;-66
2021/06/16 00:31:16;;;;;;;4.28;2.67;;;;;;;;;;5112899;28;20035;-65
2021/06/16 00:33:42;;;;;;;4.60;3.03;;;;;;;;;;5122842;27;20143;-66
2021/06/16 00:36:08;;;;;;;6.60;3.92;;;;;;;;;;5111674;27;20164;-66
2021/06/16 00:38:34;;;;;;;5.25;3.13;;;;;;;;;;5123770;27;20031;-66
2021/06/16 00:41:00;;;;;;;5.38;3.00;;;;;;;;;;5107763;28;20028;-66
2021/06/16 00:43:26;;;;;;;4.60;2.88;;;;;;;;;;5105477;28;20527;-66
2021/06/16 00:45:52;;;;;;;4.32;2.60;;;;;;;;;;5105788;27;20031;-65
2021/06/16 00:48:18;;;;;;;5.43;2.80;;;;;;;;;;5107933;27;20031;-65
2021/06/16 00:50:45;;;;;;;3.28;2.90;;;;;;;;;;5125687;27;20337;-66
2021/06/16 00:53:11;;;;;;;4.15;2.78;;;;;;;;;;5124873;27;20099;-65
2021/06/16 00:55:38;;;;;;;8.63;3.28;;;;;;;;;;5126441;27;20027;-65
2021/06/16 00:58:08;;;;;;;5.05;2.97;;;;;;;;;;5113641;27;20055;-66
2021/06/16 01:00:40;;;;;;;3.90;3.08;;;;;;;;;;5105768;28;20024;-66
2021/06/16 01:03:10;;;;;;;3.85;3.05;;;;;;;;;;5115345;27;20046;-65
2021/06/16 01:05:46;;;;;;;5.82;3.38;;;;;;;;;;5073890;28;20039;-65
2021/06/16 01:08:22;;;;;;;6.20;4.05;;;;;;;;;;5107870;28;20059;-65
2021/06/16 01:10:48;;;;;;;5.63;3.53;;;;;;;;;;5115416;28;20040;-66
2021/06/16 01:13:14;;;;;;;3.95;2.97;;;;;;;;;;5125529;27;20352;-66
2021/06/16 01:15:52;;;;;;;3.55;2.90;;;;;;;;;;5125436;27;20027;-67
2021/06/16 01:18:19;;;;;;;5.05;3.17;;;;;;;;;;5123449;28;20017;-64
2021/06/16 01:20:49;;;;;;;6.15;2.88;;;;;;;;;;5109416;28;20031;-65
2021/06/16 01:23:29;;;;;;;8.27;4.55;;;;;;;;;;5104917;28;20028;-65
2021/06/16 01:26:01;;;;;;;6.95;3.50;;;;;;;;;;5117948;28;20381;-65
2021/06/16 01:28:38;;;;;;;4.53;3.10;;;;;;;;;;5132234;28;20313;-65
2021/06/16 01:31:05;;;;;;;6.53;3.17;;;;;;;;;;5120109;28;20031;-65
2021/06/16 01:33:31;;;;;;;4.32;3.30;;;;;;;;;;5126284;28;20049;-66
2021/06/16 01:35:58;;;;;;;5.47;2.85;;;;;;;;;;5114118;28;20441;-65
2021/06/16 01:38:24;;;;;;;9.18;3.85;;;;;;;;;;5091317;28;20060;-66
2021/06/16 01:40:52;;;;;;;6.68;4.00;;;;;;;;;;5105366;28;20076;-66
2021/06/16 01:43:19;;;;;;;5.88;3.17;;;;;;;;;;5093263;28;20106;-65
2021/06/16 01:45:45;;;;;;;4.72;3.17;;;;;;;;;;5111657;28;20031;-66
2021/06/16 01:48:13;;;;;;;6.00;2.95;;;;;;;;;;5135284;27;20031;-66
2021/06/16 01:50:41;;;;;;;7.85;3.50;;;;;;;;;;5122361;27;20024;-66
2021/06/16 01:53:10;;;;;;;3.63;2.85;;;;;;;;;;5122221;27;20016;-66
2021/06/16 01:55:39;;;;;;;7.03;4.32;;;;;;;;;;5122538;27;20032;-67
2021/06/16 01:58:06;;;;;;;3.97;3.28;;;;;;;;;;5083975;28;20452;-67
2021/06/16 02:00:32;;;;;;;5.13;3.00;;;;;;;;;;5115184;28;20031;-64
2021/06/16 02:02:59;;;;;;;7.28;3.70;;;;;;;;;;5112765;27;20023;-65
2021/06/16 02:05:26;;;;;;;5.65;3.55;;;;;;;;;;5077375;28;20145;-65
2021/06/16 02:07:56;;;;;;;9.65;3.67;;;;;;;;;;5134710;27;20035;-65
2021/06/16 02:10:25;;;;;;;4.38;3.90;;;;;;;;;;5129006;27;20058;-63
2021/06/16 02:12:51;;;;;;;8.70;5.07;;;;;;;;;;5110553;28;20429;-65
2021/06/16 02:15:18;;;;;;;10.40;4.72;;;;;;;;;;5110261;28;20019;-65
2021/06/16 02:17:48;;;;;;;6.75;3.70;;;;;;;;;;5101919;28;20073;-66
2021/06/16 02:20:15;;;;;;;6.43;3.97;;;;;;;;;;5096677;28;20023;-65
2021/06/16 02:22:41;;;;;;;5.32;4.50;;;;;;;;;;5107873;28;20027;-66
2021/06/16 02:25:08;;;;;;;7.10;4.45;;;;;;;;;;5108697;28;20031;-65
2021/06/16 02:27:34;;;;;;;5.07;3.53;;;;;;;;;;5133524;27;20069;-67
2021/06/16 02:30:00;;;;;;;9.07;4.20;;;;;;;;;;5115558;27;20123;-66
2021/06/16 02:32:26;;;;;;;5.72;3.75;;;;;;;;;;5133250;27;20102;-67
2021/06/16 02:34:52;;;;;;;8.45;4.18;;;;;;;;;;5116763;27;20043;-66
2021/06/16 02:37:19;;;;;;;8.13;5.18;;;;;;;;;;5098228;28;20026;-66
2021/06/16 02:39:48;;;;;;;7.03;4.82;;;;;;;;;;5114381;28;20380;-66
2021/06/16 02:42:15;;;;;;;5.85;4.13;;;;;;;;;;5107691;28;20127;-65
2021/06/16 02:44:44;;;;;;;10.95;4.80;;;;;;;;;;5114263;28;20019;-66
2021/06/16 02:47:10;;;;;;;7.55;4.50;;;;;;;;;;5126237;27;20186;-66
2021/06/16 02:49:41;;;;;;;6.50;4.60;;;;;;;;;;5134614;27;20348;-66
2021/06/16 02:52:10;;;;;;;6.55;4.47;;;;;;;;;;5116261;27;20047;-65
2021/06/16 02:54:36;;;;;;;5.85;3.67;;;;;;;;;;5114208;28;20031;-66
2021/06/16 02:57:03;;;;;;;6.22;4.20;;;;;;;;;;5114048;28;20023;-65
2021/06/16 02:59:30;;;;;;;5.43;3.90;;;;;;;;;;5095372;28;20023;-66
2021/06/16 03:01:59;;;;;;;8.02;4.03;;;;;;;;;;5095885;28;20168;-66
2021/06/16 03:04:26;;;;;;;5.68;4.43;;;;;;;;;;5089875;28;20062;-66
2021/06/16 03:06:53;;;;;;;7.00;4.30;;;;;;;;;;5102447;27;20103;-67
2021/06/16 03:09:22;;;;;;;6.10;4.03;;;;;;;;;;5134230;27;20050;-66
2021/06/16 03:11:50;;;;;;;7.35;4.47;;;;;;;;;;5115852;27;20092;-66
2021/06/16 03:14:16;;;;;;;8.43;4.88;;;;;;;;;;5124335;27;20019;-65
2021/06/16 03:16:42;;;;;;;5.40;4.60;;;;;;;;;;5112566;27;20031;-66
2021/06/16 03:19:09;;;;;;;7.95;4.53;;;;;;;;;;5111021;28;20098;-66
2021/06/16 03:21:36;;;;;;;7.70;4.50;;;;;;;;;;5113423;28;20031;-65
2021/06/16 03:24:02;;;;;;;7.03;4.57;;;;;;;;;;5113699;28;20051;-66
2021/06/16 03:26:29;;;;;;;8.18;4.90;;;;;;;;;;5096785;28;20032;-66
2021/06/16 03:28:56;;;;;;;7.07;4.47;;;;;;;;;;5126963;27;20039;-66
2021/06/16 03:31:22;;;;;;;8.55;4.30;;;;;;;;;;5117381;27;20035;-66
2021/06/16 03:33:48;;;;;;;9.82;5.65;;;;;;;;;;5125061;27;20059;-66
2021/06/16 03:36:15;;;;;;;5.40;4.35;;;;;;;;;;5133804;27;20030;-66
2021/06/16 03:38:45;;;;;;;13.25;4.85;;;;;;;;;;5097612;28;20078;-67
2021/06/16 03:41:14;;;;;;;10.98;5.05;;;;;;;;;;5091653;28;20032;-66
2021/06/16 03:43:42;;;;;;;5.78;4.28;;;;;;;;;;5095120;28;20061;-65
2021/06/16 03:46:08;;;;;;;6.88;4.57;;;;;;;;;;5106457;28;20092;-66
2021/06/16 03:48:35;;;;;;;6.50;5.22;;;;;;;;;;5101972;28;20035;-64
2021/06/16 03:51:02;;;;;;;9.80;5.82;;;;;;;;;;5126818;27;20032;-65
2021/06/16 03:53:28;;;;;;;7.35;5.18;;;;;;;;;;5113148;28;20024;-66
2021/06/16 03:55:55;;;;;;;7.20;5.07;;;;;;;;;;5120208;27;20034;-65
2021/06/16 03:58:21;;;;;;;6.25;4.97;;;;;;;;;;5111731;28;20033;-66
2021/06/16 04:00:47;;;;;;;7.05;5.18;;;;;;;;;;5100937;28;20555;-66
2021/06/16 04:03:13;;;;;;;10.00;5.78;;;;;;;;;;5099452;27;20031;-66
2021/06/16 04:05:40;;;;;;;9.90;4.93;;;;;;;;;;5101718;27;20035;-66
2021/06/16 04:08:07;;;;;;;9.10;5.53;;;;;;;;;;5100308;27;20318;-66
2021/06/16 04:10:33;;;;;;;9.00;5.75;;;;;;;;;;5131886;27;20137;-66
2021/06/16 04:13:00;;;;;;;9.30;5.47;;;;;;;;;;5126863;27;20091;-66
2021/06/16 04:15:26;;;;;;;7.88;5.28;;;;;;;;;;5119929;27;20111;-66
2021/06/16 04:17:53;;;;;;;6.68;5.28;;;;;;;;;;5133153;27;20110;-66
2021/06/16 04:20:22;;;;;;;6.13;5.07;;;;;;;;;;5105867;28;20043;-65
2021/06/16 04:22:50;;;;;;;7.55;5.07;;;;;;;;;;5112376;28;20027;-65
2021/06/16 04:25:16;;;;;;;10.63;5.50;;;;;;;;;;5112302;28;20023;-65
2021/06/16 04:27:42;;;;;;;9.23;5.10;;;;;;;;;;5112410;28;20024;-65
2021/06/16 04:30:13;;;;;;;6.50;5.35;;;;;;;;;;5132338;27;20038;-67
2021/06/16 04:32:39;;;;;;;8.20;5.40;;;;;;;;;;5114354;27;20085;-66
2021/06/16 04:35:09;;;;;;;6.75;5.35;;;;;;;;;;5114739;27;20396;-65
2021/06/16 04:37:35;;;;;;;7.88;5.80;;;;;;;;;;5132508;27;20403;-66
2021/06/16 04:40:01;;;;;;;10.18;5.80;;;;;;;;;;5106628;27;20043;-65
2021/06/16 04:42:27;;;;;;;8.88;5.95;;;;;;;;;;5111022;28;20024;-67
2021/06/16 04:44:53;;;;;;;8.82;5.45;;;;;;;;;;5111755;28;20538;-66
2021/06/16 04:47:22;;;;;;;7.88;5.90;;;;;;;;;;5106773;28;20053;-67
2021/06/16 04:49:48;;;;;;;9.98;6.15;;;;;;;;;;5106095;28;20027;-65
2021/06/16 04:52:16;;;;;;;7.10;5.28;;;;;;;;;;5112588;27;20020;-65
2021/06/16 04:54:42;;;;;;;7.90;6.13;;;;;;;;;;5118275;27;20027;-65
2021/06/16 04:57:08;;;;;;;8.30;5.20;;;;;;;;;;5125757;27;20357;-65
2021/06/16 04:59:34;;;;;;;8.48;5.07;;;;;;;;;;5109719;27;20554;-65
2021/06/16 05:02:01;;;;;;;7.35;5.68;;;;;;;;;;5091468;28;20372;-65
2021/06/16 05:04:29;;;;;;;8.30;5.40;;;;;;;;;;5105501;28;20055;-65
2021/06/16 05:06:55;;;;;;;8.20;5.32;;;;;;;;;;5111697;28;20084;-65
2021/06/16 05:09:24;;;;;;;10.57;5.80;;;;;;;;;;5104109;27;20134;-64
2021/06/16 05:11:50;;;;;;;8.48;5.30;;;;;;;;;;5121615;27;20047;-65
2021/06/16 05:14:16;;;;;;;8.73;5.75;;;;;;;;;;5111557;28;20053;-65
2021/06/16 05:16:42;;;;;;;8.73;5.30;;;;;;;;;;5111801;28;20470;-64
2021/06/16 05:19:20;;;;;;;7.45;5.57;;;;;;;;;;5101859;28;20028;-64
2021/06/16 05:21:49;;;;;;;6.38;4.95;;;;;;;;;;5102318;28;20019;-64
2021/06/16 05:24:15;;;;;;;7.38;5.18;;;;;;;;;;5104665;28;20031;-65
2021/06/16 05:26:44;;;;;;;5.97;5.18;;;;;;;;;;5104794;28;20355;-65
2021/06/16 05:29:10;;;;;;;11.05;6.40;;;;;;;;;;5104709;28;20034;-65
2021/06/16 05:31:36;;;;;;;9.60;6.55;;;;;;;;;;5132002;27;20027;-66
2021/06/16 05:34:03;;;;;;;9.13;5.25;;;;;;;;;;5109983;28;20047;-66
2021/06/16 05:36:29;;;;;;;8.98;5.85;;;;;;;;;;5128818;28;20489;-67
2021/06/16 05:38:55;;;;;;;5.53;5.03;;;;;;;;;;5122210;28;20032;-65
2021/06/16 05:41:22;;;;;;;7.47;5.72;;;;;;;;;;5107913;28;20122;-67
2021/06/16 05:43:50;;;;;;;8.27;5.30;;;;;;;;;;5106981;28;20030;-67
2021/06/16 05:46:16;;;;;;;6.25;5.43;;;;;;;;;;5095075;28;20090;-67
2021/06/16 05:48:42;;;;;;;9.40;5.63;;;;;;;;;;5113564;28;20101;-66
2021/06/16 05:51:08;;;;;;;11.23;5.30;;;;;;;;;;5103050;28;20355;-66
2021/06/16 05:53:34;;;;;;;6.25;5.05;;;;;;;;;;5118074;28;20020;-65
2021/06/16 05:56:00;;;;;;;7.55;4.88;;;;;;;;;;5111222;28;20401;-66
2021/06/16 05:58:26;;;;;;;9.23;5.70;;;;;;;;;;5117885;28;20019;-66
2021/06/16 06:00:52;;;;;;;7.28;5.30;;;;;;;;;;5110988;28;20406;-67
2021/06/16 06:03:18;;;;;;;9.35;5.22;;;;;;;;;;5104415;28;20052;-66
2021/06/16 06:05:44;;;;;;;8.70;5.30;;;;;;;;;;5110864;28;20035;-66
2021/06/16 06:08:10;;;;;;;7.07;5.07;;;;;;;;;;5104562;28;20093;-67
2021/06/16 06:10:36;;;;;;;8.38;5.07;;;;;;;;;;5116808;28;20043;-67
2021/06/16 06:13:05;;;;;;;8.48;5.28;;;;;;;;;;5117749;28;20072;-66
2021/06/16 06:15:33;;;;;;;6.72;5.53;;;;;;;;;;5100612;28;20031;-65
2021/06/16 06:18:00;;;;;;;7.07;5.38;;;;;;;;;;5117952;28;20015;-65
2021/06/16 06:20:26;;;;;;;8.52;4.95;;;;;;;;;;5105247;28;20433;-65
2021/06/16 06:22:55;;;;;;;8.75;5.97;;;;;;;;;;5073445;28;20066;-65
2021/06/16 06:25:21;;;;;;;7.10;5.63;;;;;;;;;;5097360;28;20035;-66
2021/06/16 06:27:47;;;;;;;10.02;5.18;;;;;;;;;;5110893;28;20039;-66
2021/06/16 06:30:13;;;;;;;7.43;5.03;;;;;;;;;;5117071;28;20320;-66
2021/06/16 06:32:40;;;;;;;5.63;4.90;;;;;;;;;;5103476;27;20035;-66
2021/06/16 06:35:06;;;;;;;9.95;5.10;;;;;;;;;;5134458;27;20019;-66
2021/06/16 06:37:32;;;;;;;7.13;4.90;;;;;;;;;;5116669;27;20356;-66
2021/06/16 06:40:01;;;;;;;7.15;5.05;;;;;;;;;;5119467;27;20467;-66
2021/06/16 06:42:27;;;;;;;7.07;5.05;;;;;;;;;;5109646;27;20043;-66
2021/06/16 06:44:53;;;;;;;10.15;5.43;;;;;;;;;;5114604;28;20024;-65
2021/06/16 06:47:20;;;;;;;7.82;5.40;;;;;;;;;;5114671;28;20420;-66
2021/06/16 06:49:46;;;;;;;6.93;4.90;;;;;;;;;;5107853;28;20055;-67
2021/06/16 06:52:12;;;;;;;7.95;5.18;;;;;;;;;;5125060;27;20019;-66
2021/06/16 06:54:38;;;;;;;9.07;5.28;;;;;;;;;;5124846;27;20053;-67
2021/06/16 06:57:04;;;;;;;6.63;5.10;;;;;;;;;;5117982;27;20098;-67
2021/06/16 06:59:31;;;;;;;12.55;6.10;;;;;;;;;;5117700;27;20027;-65
2021/06/16 07:01:59;;;;;;;8.05;5.28;;;;;;;;;;5115578;27;20051;-66
2021/06/16 07:04:26;;;;;;;8.25;4.63;;;;;;;;;;5094275;28;20028;-65
2021/06/16 07:06:54;;;;;;;5.53;4.65;;;;;;;;;;5108795;27;20031;-63
2021/06/16 07:09:24;;;;;;;8.05;5.07;;;;;;;;;;5104195;27;20120;-63
2021/06/16 07:11:50;;;;;;;6.53;4.25;;;;;;;;;;5114248;28;20142;-63
2021/06/16 07:14:16;;;;;;;6.03;4.35;;;;;;;;;;5121488;27;20027;-64
2021/06/16 07:16:42;;;;;;;6.88;4.82;;;;;;;;;;5116336;27;20035;-64
2021/06/16 07:19:08;;;;;;;5.28;4.32;;;;;;;;;;5133955;27;20057;-64
2021/06/16 07:21:34;;;;;;;5.85;5.25;;;;;;;;;;5125615;27;20051;-65
2021/06/16 07:24:00;;;;;;;9.35;4.93;;;;;;;;;;5104199;27;20024;-64
2021/06/16 07:26:26;;;;;;;9.43;4.80;;;;;;;;;;5113798;28;20027;-64
2021/06/16 07:28:55;;;;;;;7.07;4.70;;;;;;;;;;5106907;27;20088;-64
2021/06/16 07:31:21;;;;;;;6.50;4.40;;;;;;;;;;5120647;27;20035;-63
2021/06/16 07:33:47;;;;;;;11.45;5.45;;;;;;;;;;5123989;27;20020;-64
2021/06/16 07:36:13;;;;;;;7.20;4.38;;;;;;;;;;5134035;27;20048;-65
2021/06/16 07:38:41;;;;;;;8.07;5.10;;;;;;;;;;5131826;27;20023;-65
2021/06/16 07:41:07;;;;;;;7.10;4.40;;;;;;;;;;5097462;28;20027;-65
2021/06/16 07:43:33;;;;;;;8.88;4.63;;;;;;;;;;5092858;28;20020;-65
2021/06/16 07:45:59;;;;;;;12.43;5.38;;;;;;;;;;5106247;27;20047;-64
2021/06/16 07:48:25;;;;;;;6.47;4.53;;;;;;;;;;5120017;27;20032;-64
2021/06/16 07:50:51;;;;;;;4.97;4.32;;;;;;;;;;5119277;27;20046;-65
2021/06/16 07:53:17;;;;;;;6.53;4.78;;;;;;;;;;5126260;27;20023;-64
2021/06/16 07:55:43;;;;;;;4.35;3.95;;;;;;;;;;5124783;27;20024;-63
2021/06/16 07:58:10;;;;;;;6.95;4.05;;;;;;;;;;5090616;28;20032;-64
2021/06/16 08:00:38;;;;;;;8.25;4.57;;;;;;;;;;5107822;28;20051;-64
2021/06/16 08:03:05;;;;;;;6.72;4.82;;;;;;;;;;5117011;27;20028;-65
2021/06/16 08:05:31;;;;;;;7.80;4.78;;;;;;;;;;5113212;27;20098;-64
2021/06/16 08:07:57;;;;;;;8.95;5.07;;;;;;;;;;5125459;27;20080;-64
2021/06/16 08:10:23;;;;;;;6.93;4.93;;;;;;;;;;5122034;27;20039;-64
2021/06/16 08:12:52;;;;;;;6.13;5.20;;;;;;;;;;5114281;27;20030;-65
2021/06/16 08:15:18;;;;;;;8.70;5.90;;;;;;;;;;5113006;27;20111;-65
2021/06/16 08:17:44;;;;;;;8.68;5.40;;;;;;;;;;5104473;27;20093;-65
2021/06/16 08:20:12;;;;;;;7.88;5.13;;;;;;;;;;5106280;28;20046;-64
2021/06/16 08:22:38;;;;;;;6.55;5.57;;;;;;;;;;5108401;27;20032;-65
2021/06/16 08:25:06;;;;;;;7.18;5.85;;;;;;;;;;5092486;28;20035;-64
2021/06/16 08:27:32;;;;;;;8.00;5.72;;;;;;;;;;5117903;27;20023;-65
2021/06/16 08:29:58;;;;;;;13.18;6.70;;;;;;;;;;5124547;27;20037;-64
2021/06/16 08:32:24;;;;;;;12.60;6.43;;;;;;;;;;5125384;27;20435;-64
2021/06/16 08:34:55;;;;;;;7.05;5.35;;;;;;;;;;5098254;28;20038;-63
2021/06/16 08:37:21;;;;;;;6.47;5.88;;;;;;;;;;5114269;27;20031;-64
2021/06/16 08:39:47;;;;;;;7.32;5.13;;;;;;;;;;5107950;28;20020;-65
2021/06/16 08:42:13;;;;;;;5.50;4.78;;;;;;;;;;5109345;28;20076;-66
2021/06/16 08:44:43;;;;;;;9.30;5.78;;;;;;;;;;5113938;27;20066;-66
2021/06/16 08:47:09;;;;;;;9.73;6.45;;;;;;;;;;5116136;27;20091;-66
2021/06/16 08:49:37;;;;;;;10.77;6.10;;;;;;;;;;5119832;27;20103;-65
2021/06/16 08:52:03;;;;;;;11.95;6.10;;;;;;;;;;5113468;27;20027;-66
2021/06/16 08:54:30;;;;;;;9.30;5.47;;;;;;;;;;5114131;27;20028;-65
2021/06/16 08:56:58;;;;;;;7.80;5.63;;;;;;;;;;5110094;28;20012;-65
2021/06/16 08:59:24;;;;;;;9.27;5.55;;;;;;;;;;5106987;28;20306;-66
2021/06/16 09:01:50;;;;;;;10.75;5.95;;;;;;;;;;5115442;27;20028;-66
2021/06/16 09:04:35;;;;;;;12.70;6.25;;;;;;;;;;5116443;27;20106;-65
2021/06/16 09:07:09;;;;;;;7.45;5.80;;;;;;;;;;5130434;27;20031;-66
2021/06/16 09:09:35;;;;;;;8.43;5.07;;;;;;;;;;5114296;27;20039;-65
2021/06/16 09:12:05;;;;;;;10.63;6.75;;;;;;;;;;5119103;27;20061;-66
2021/06/16 09:14:32;;;;;;;8.75;5.60;;;;;;;;;;5120429;27;20020;-65
2021/06/16 09:17:02;;;;;;;8.05;5.90;;;;;;;;;;5104395;28;20024;-65
2021/06/16 09:19:33;;;;;;;8.00;5.72;;;;;;;;;;5108710;28;20049;-65
2021/06/16 09:21:59;;;;;;;8.07;5.75;;;;;;;;;;5094116;28;20437;-65
2021/06/16 09:24:42;;;;;;;7.03;5.18;;;;;;;;;;5108723;28;20038;-64
2021/06/16 09:27:10;;;;;;;10.02;6.35;;;;;;;;;;5109565;28;20035;-65
2021/06/16 09:29:36;;;;;;;6.97;5.55;;;;;;;;;;5109196;28;20035;-66
2021/06/16 09:32:04;;;;;;;8.38;5.78;;;;;;;;;;5110023;28;20476;-63
2021/06/16 09:34:30;;;;;;;9.07;5.03;;;;;;;;;;5117182;28;20012;-65
2021/06/16 09:36:57;;;;;;;6.90;5.78;;;;;;;;;;5114202;28;20102;-65
2021/06/16 09:39:25;;;;;;;7.78;5.78;;;;;;;;;;5109792;28;20052;-64
2021/06/16 09:41:53;;;;;;;9.52;5.47;;;;;;;;;;5113266;28;20028;-63
2021/06/16 09:44:40;;;;;;;8.05;4.80;;;;;;;;;;5107001;28;20035;-64
2021/06/16 09:47:14;;;;;;;6.72;4.75;;;;;;;;;;5109432;28;20035;-64
2021/06/16 09:49:52;;;;;;;9.20;5.53;;;;;;;;;;5111039;28;20020;-66
2021/06/16 09:52:27;;;;;;;7.65;5.40;;;;;;;;;;5123391;28;20347;-65
2021/06/16 09:54:55;;;;;;;8.38;5.30;;;;;;;;;;5110307;28;20020;-65
2021/06/16 09:57:23;;;;;;;9.10;5.43;;;;;;;;;;5105085;28;20411;-65
2021/06/16 09:59:51;;;;;;;6.10;4.78;;;;;;;;;;5112735;28;20371;-65
2021/06/16 10:02:20;;;;;;;8.38;5.00;;;;;;;;;;5104270;28;20085;-65
2021/06/16 10:04:50;;;;;;;8.25;4.97;;;;;;;;;;5111566;28;20103;-66
2021/06/16 10:07:17;;;;;;;;;;;;;;;;;;5111571;28;20023;-66
2021/06/16 10:09:56;;;;;;;9.82;5.03;;;;;;;;;;5116358;27;20259;-67
2021/06/16 10:12:23;;;;;;;7.60;4.57;;;;;;;;;;5099853;28;20019;-66
2021/06/16 10:14:49;;;;;;;5.82;4.50;;;;;;;;;;5119891;27;20023;-67
2021/06/16 10:17:15;;;;;;;5.90;4.78;;;;;;;;;;5125350;27;20019;-66
2021/06/16 10:19:43;;;;;;;7.38;4.75;;;;;;;;;;5114939;27;20073;-67
2021/06/16 10:22:10;;;;;;;6.25;4.28;;;;;;;;;;5115406;27;20023;-66
2021/06/16 10:24:38;;;;;;;5.20;4.05;;;;;;;;;;5101982;27;20095;-66
2021/06/16 10:27:06;;;;;;;6.03;4.85;;;;;;;;;;5084557;28;20101;-66
2021/06/16 10:29:38;;;;;;;6.07;4.40;;;;;;;;;;5121359;27;20583;-66
2021/06/16 10:32:05;;;;;;;7.25;4.45;;;;;;;;;;5114728;28;20035;-66
2021/06/16 10:34:49;;;;;;;7.20;4.30;;;;;;;;;;5128471;27;20035;-67
2021/06/16 10:37:35;;;;;;;7.43;4.40;;;;;;;;;;5123264;27;20156;-66
2021/06/16 10:40:16;;;;;;;5.97;4.57;;;;;;;;;;5117007;27;20115;-66
2021/06/16 10:43:09;;;;;;;7.05;4.88;;;;;;;;;;5109506;27;20016;-66
2021/06/16 10:45:39;;;;;;;7.28;5.00;;;;;;;;;;5086838;28;20021;-65
2021/06/16 10:48:07;;;;;;;8.13;4.68;;;;;;;;;;5110181;27;20056;-66
2021/06/16 10:50:50;;;;;;;5.57;4.68;;;;;;;;;;5131090;27;20034;-64
2021/06/16 10:53:17;;;;;;;8.23;4.90;;;;;;;;;;5134924;27;20432;-65
2021/06/16 10:55:55;;;;;;;4.65;4.10;;;;;;;;;;5127978;27;20413;-64
2021/06/16 10:58:28;;;;;;;6.05;4.28;;;;;;;;;;5115763;27;20070;-65
2021/06/16 11:01:11;;;;;;;6.95;4.20;;;;;;;;;;5110853;27;20436;-66
2021/06/16 11:03:46;;;;;;;6.43;4.32;;;;;;;;;;5101108;27;20024;-66
2021/06/16 11:06:31;;;;;;;6.45;4.45;;;;;;;;;;5100413;28;20024;-66
2021/06/16 11:08:56;;;;;;;7.55;4.45;;;;;;;;;;5117552;27;20035;-65
2021/06/16 11:11:24;;;;;;;7.32;4.38;;;;;;;;;;5104682;28;20032;-66
2021/06/16 11:13:50;;;;;;;7.22;4.00;;;;;;;;;;5115074;27;20019;-65
2021/06/16 11:16:35;;;;;;;5.03;4.15;;;;;;;;;;5087629;28;20074;-67
2021/06/16 11:19:30;;;;;;;6.43;4.30;;;;;;;;;;5104688;28;20103;-66
2021/06/16 11:21:58;;;;;;;5.63;4.28;;;;;;;;;;5092294;27;20043;-66
2021/06/16 11:24:44;;;;;;;7.18;4.45;;;;;;;;;;5103508;28;20136;-67
2021/06/16 11:27:10;;;;;;;4.35;3.58;;;;;;;;;;5128215;27;20027;-67
2021/06/16 11:30:03;;;;;;;10.73;4.68;;;40.00;54.50;;;;;;5133825;27;20098;-66
2021/06/16 11:32:29;;;;;;;5.95;3.88;;;;;;;;;;5118863;27;20057;-66
2021/06/16 11:34:56;;;;;;;6.93;3.58;;;;;;;;;;5095413;27;20035;-66
2021/06/16 11:37:41;;;;;;;4.70;3.97;;;;;;;;;;5100899;27;20027;-66
2021/06/16 11:40:07;;;;;;;6.38;4.25;;;;;;;;;;5092870;28;20031;-66
2021/06/16 11:42:33;;;;;;;7.78;4.03;;;;;;;;;;5097346;27;20042;-65
2021/06/16 11:45:01;;;;;;;6.13;4.30;;;;;;;;;;5113929;27;20166;-66
2021/06/16 11:47:27;;;;;;;7.63;3.90;;;;;;;;;;5126779;27;20082;-65
2021/06/16 11:50:04;;;;;;;4.43;4.03;;;;;;;;;;5129851;27;20099;-65
2021/06/16 11:52:30;;;;;;;5.60;4.15;;;;;;;;;;5122955;27;20027;-65
2021/06/16 11:54:56;;;;;;;8.02;4.15;;;;;;;;;;5129056;27;20472;-65
2021/06/16 11:57:26;;;;;;;4.15;3.75;;;;;;;;;;5113908;27;20031;-64
2021/06/16 11:59:53;;;;;;;10.32;4.35;;;;;;;;;;5103433;27;20126;-65
2021/06/16 12:02:23;;;;;;;5.22;3.72;;;;;;;;;;5110813;28;20130;-66
2021/06/16 12:04:50;;;;;;;6.55;4.10;;;;;;;;;;5099818;27;20024;-65
2021/06/16 12:07:41;;;;;;;7.90;4.38;;;;;;;;;;5111216;27;20350;-65
2021/06/16 12:10:09;;;;;;;4.32;3.92;;;;;;;;;;5127114;27;20052;-65
2021/06/16 12:12:47;;;;;;;7.18;4.68;;;;;;;;;;5119177;27;20043;-65
2021/06/16 12:15:19;;;;;;;5.28;3.80;;;;;;;;;;5130906;27;20494;-65
2021/06/16 12:18:05;;;;;;;5.30;3.80;;;;;;;;;;5113885;27;20046;-65
2021/06/16 12:20:39;;;;;;;6.18;4.13;;;;;;;;;;5109816;28;20039;-65
2021/06/16 12:23:20;;;;;;;11.70;4.55;;;;;;;;;;5105644;28;20164;-64
2021/06/16 12:25:46;;;;;;;4.47;3.88;;;;;;;;;;5103452;27;20039;-63
2021/06/16 12:28:12;;;;;;;9.68;4.00;;;;;;;;;;5108640;27;20034;-64
2021/06/16 12:30:41;;;;;;;6.13;4.10;;;;;;;;;;5112825;27;20023;-65
2021/06/16 12:33:13;;;;;;;8.60;4.35;;;;;;;;;;5132541;27;20026;-63
2021/06/16 12:35:53;;;;;;;9.23;3.90;;;;;;;;;;5127809;27;20019;-65
2021/06/16 12:38:33;;;;;;;6.40;3.90;;;;;;;;;;5122660;27;20027;-64
2021/06/16 12:40:59;;;;;;;6.28;4.38;;;;;;;;;;5107461;27;20355;-65
2021/06/16 12:43:29;;;;;;;5.60;3.95;;;;;;;;;;5108177;28;20024;-64
2021/06/16 12:45:56;;;;;;;6.50;4.00;;;;;;;;;;5099259;28;20032;-65
2021/06/16 12:48:27;;;;;;;5.78;4.25;;;;;;;;;;5111559;28;20412;-65
2021/06/16 12:50:56;;;;;;;5.22;4.20;;;;;;;;;;5123333;27;20479;-64
2021/06/16 12:53:25;;;;;;;6.30;3.72;;;;;;;;;;5124256;27;20090;-64
2021/06/16 12:55:52;;;;;;;5.07;3.53;;;;;;;;;;5126645;27;20103;-64
2021/06/16 12:58:22;;;;;;;7.72;4.32;;;;;;;;;;5106524;28;20035;-65
2021/06/16 13:00:49;;;;;;;3.88;3.50;;;;;;;;;;5113779;27;20114;-64
2021/06/16 13:03:21;;;;;;;6.15;3.97;;;;;;;;;;5099422;27;20035;-64
2021/06/16 13:05:52;;;;;;;5.18;3.75;;;;;;;;;;5107197;27;20020;-64
2021/06/16 13:08:33;;;;;;;4.40;3.70;;;;;;;;;;5118087;27;20070;-64
2021/06/16 13:10:58;;;;;;;7.85;3.85;;;43.10;50.60;;;;;;5120038;27;20127;-64
2021/06/16 13:13:24;;;;;;;4.22;3.83;;;;;;;;;;5119155;27;20115;-64
2021/06/16 13:15:51;;;;;;;6.53;3.40;;;;;;;;;;5131884;27;20531;-64
2021/06/16 13:18:18;;;;;;;4.45;3.05;;;;;;;;;;5095159;28;20054;-64
2021/06/16 13:20:45;;;;;;;4.47;3.60;;;;;;;;;;5115877;28;20030;-64
2021/06/16 13:23:16;;;;;;;3.85;2.90;;;;;;;;;;5105953;28;20023;-63
2021/06/16 13:25:42;;;;;;;6.32;3.22;;;;;;;;;;5111571;28;20413;-64
2021/06/16 13:28:20;;;;;;;3.95;2.85;;;;;;;;;;5091361;28;20088;-64
2021/06/16 13:30:46;;;;;;;4.10;3.70;;;;;;;;;;5120122;28;20023;-65
2021/06/16 13:33:12;;;;;;;3.10;2.80;;;;;;;;;;5101852;28;20455;-65
2021/06/16 13:35:41;;;;;;;3.45;2.90;;;;;;;;;;5131570;28;20072;-64
2021/06/16 13:38:07;;;;;;;3.70;2.90;;;;;;;;;;5104184;28;20360;-64
2021/06/16 13:40:33;;;;;;;3.35;2.58;;;;;;;;;;5102691;28;20039;-64
2021/06/16 13:43:00;;;;;;;3.22;2.63;;;;;;;;;;5095874;28;20419;-64
2021/06/16 13:45:27;;;;;;;2.83;2.63;;;;;;;;;;5116632;27;20063;-64
2021/06/16 13:47:54;;;;;;;3.75;2.83;;;;;;;;;;5122612;27;20042;-64
2021/06/16 13:50:21;;;;;;;5.30;3.25;;;;;;;;;;5134112;27;20031;-64
2021/06/16 13:52:48;;;;;;;4.97;3.22;;;;;;;;;;5128721;27;20019;-64
2021/06/16 13:55:14;;;;;;;3.88;2.95;;;;;;;;;;5122946;27;20111;-64
2021/06/16 13:57:43;;;;;;;3.85;3.15;;;;;;;;;;5128495;27;20080;-64
2021/06/16 14:00:13;;;;;;;2.75;2.55;;;;;;;;;;5113119;27;20024;-64
2021/06/16 14:02:42;;;;;;;3.30;3.00;;;;;;;;;;5103303;27;20462;-64
2021/06/16 14:05:08;;;;;;;6.13;3.42;;;;;;;;;;5109332;27;20102;-63
2021/06/16 14:07:34;;;;;;;7.75;2.90;;;;;;;;;;5119302;27;20038;-65
2021/06/16 14:10:00;;;;;;;2.40;2.00;;;;;;;;;;5117087;27;20584;-65
2021/06/16 14:12:26;;;;;;;3.22;2.60;;;;;;;;;;5120357;27;20046;-65
2021/06/16 14:14:52;;;;;;;4.45;2.70;;;;;;;;;;5116418;27;20115;-64
2021/06/16 14:17:18;;;;;;;3.10;2.45;;;;;;;;;;5115729;27;20019;-65
2021/06/16 14:19:45;;;;;;;5.05;2.75;;;;;;;;;;5109859;27;20020;-65
2021/06/16 14:22:12;;;;;;;3.95;2.22;;;;;;;;;;5113009;27;20031;-65
2021/06/16 14:24:41;;;;;;;5.63;2.53;;;;;;;;;;5108735;28;20089;-65
2021/06/16 14:27:07;;;;;;;4.60;2.45;;;;;;;;;;5111302;27;20028;-64
2021/06/16 14:29:35;;;;;;;4.85;2.80;;;;;;;;;;5116480;27;20423;-64
2021/06/16 14:32:04;;;;;;;8.13;3.22;;;;;;;;;;5121010;27;20047;-63
2021/06/16 14:34:33;;;;;;;3.22;2.72;;;;;;;;;;5124789;27;20472;-65
2021/06/16 14:37:00;;;;;;;6.97;3.08;;;;;;;;;;5105470;27;20035;-65
2021/06/16 14:39:26;;;;;;;4.10;2.70;;;;;;;;;;5122906;27;20441;-64
2021/06/16 14:41:55;;;;;;;5.07;2.40;;;;;;;;;;5110030;28;20100;-64
2021/06/16 14:44:21;;;;;;;4.10;2.60;;;;;;;;;;5076321;28;20115;-65
2021/06/16 14:46:47;;;;;;;3.40;2.35;;;;;;;;;;5104354;28;20050;-64
2021/06/16 14:49:13;;;;;;;2.50;2.30;;;;;;;;;;5115282;27;20103;-64